Annapolis, Indiana
Current Conditions -  °F | °C
As of 5:35 PM on Sunday 21 Dec 2014 (Local Time) from KPRG Reporting Station
Clear Clear  
Wind Chill: -1°   Ceiling: Unl
Heat Index:   Visibility: 10mi
Dew Point: -1°   Wind: 6mph
Humidity: 85%   Direction: 120°ESE
Pressure: 30.11"   Gusts: NA
Location:  39.8468°N, 87.2662°W
Report Text: KPRG 212235Z AUTO 12005KT 10SM CLR 02/00 A3011 RMK AO2 T00171005
Loading
Personal Weather Stations






























Interactive Weather Map New forecast layout! Learn more

10-Day Weather Forecast

Advertisements
Track Severe Weather on mobile